createdAt,value
2019-03-27T09:42:09.817Z,7.50
2019-03-27T09:44:39.438Z,12.80
2019-03-27T09:47:09.454Z,12.60
2019-03-27T09:49:48.873Z,12.60
2019-03-27T09:52:10.287Z,12.20
2019-03-27T09:54:39.881Z,12.00
2019-03-27T09:57:09.469Z,11.90
2019-03-27T09:59:39.030Z,11.80
2019-03-27T10:02:08.529Z,12.30
2019-03-27T10:09:35.669Z,12.70
2019-03-27T10:12:05.252Z,13.70
2019-03-27T10:14:34.770Z,13.90
2019-03-27T10:17:04.461Z,14.00
2019-03-27T10:19:33.884Z,13.60
2019-03-27T10:22:03.298Z,13.60
2019-03-27T10:24:32.895Z,13.20
2019-03-27T10:27:02.446Z,13.20
2019-03-27T10:29:31.946Z,13.30
2019-03-27T10:32:01.445Z,13.30
2019-03-27T10:34:31.015Z,12.90
2019-03-27T10:37:00.580Z,13.00
2019-03-27T10:39:30.090Z,13.40
2019-03-27T10:41:59.894Z,13.40
2019-03-27T10:44:29.482Z,13.70
2019-03-27T10:46:59.055Z,13.30
2019-03-27T10:49:28.557Z,13.30
2019-03-27T10:51:58.075Z,13.60
2019-03-27T10:54:27.646Z,13.40
2019-03-27T10:56:57.169Z,13.60
2019-03-27T10:59:26.649Z,14.00
2019-03-27T11:01:56.310Z,14.10
2019-03-27T11:04:25.849Z,14.20
2019-03-27T11:06:55.430Z,13.70
2019-03-27T11:09:25.055Z,13.40
2019-03-27T11:11:54.647Z,13.50
2019-03-27T11:14:36.844Z,13.60
2019-03-27T11:16:55.574Z,13.40
2019-03-27T11:19:24.994Z,13.30
2019-03-27T11:21:54.478Z,13.20
2019-03-27T11:24:23.900Z,13.30
2019-03-27T11:26:53.383Z,13.70
2019-03-27T11:31:51.752Z,14.20
2019-03-27T15:37:09.788Z,15.00
2019-03-27T15:39:39.395Z,14.60
2019-03-27T15:42:09.354Z,14.30
2019-03-27T15:44:38.965Z,14.40
2019-03-27T15:47:08.559Z,14.60
2019-03-27T15:49:38.275Z,14.70
2019-03-27T15:52:07.779Z,14.60
2019-03-27T15:54:38.395Z,14.50
2019-03-27T15:57:08.688Z,14.50
2019-03-27T15:59:38.363Z,14.60
2019-03-27T16:02:08.248Z,14.50
2019-03-27T16:04:38.941Z,14.40
2019-03-27T16:07:08.843Z,14.40
2019-03-27T16:09:38.540Z,14.40
2019-03-27T16:12:08.291Z,14.40
2019-03-27T16:14:37.879Z,14.20
2019-03-27T16:17:13.506Z,14.10
2019-03-27T16:19:38.803Z,14.10
2019-03-27T16:22:08.604Z,14.00
2019-03-27T16:24:38.181Z,14.00
2019-03-27T16:27:07.760Z,14.10
2019-03-27T16:29:37.431Z,13.70
2019-03-27T16:32:07.291Z,13.80
2019-03-27T16:34:37.419Z,13.90
2019-03-27T16:37:07.121Z,13.70
2019-03-27T16:39:36.660Z,13.80
2019-03-27T16:42:06.292Z,13.90
2019-03-27T16:44:35.856Z,13.90
2019-03-27T16:47:05.461Z,13.90
2019-03-27T16:49:35.367Z,13.90
2019-03-27T16:52:04.948Z,13.90
2019-03-27T16:54:34.536Z,13.90
2019-03-27T16:57:04.224Z,13.90
2019-03-27T16:59:34.060Z,13.70
2019-03-27T17:02:07.066Z,13.70
2019-03-27T17:04:36.962Z,13.70
2019-03-27T17:07:06.555Z,13.80
2019-03-27T17:09:54.803Z,13.70
2019-03-27T17:12:24.376Z,13.70
2019-03-27T17:14:54.095Z,13.70
2019-03-27T17:17:24.141Z,13.50
2019-03-27T17:19:53.691Z,13.50
2019-03-27T17:22:23.124Z,13.40
2019-03-27T17:24:55.913Z,13.50
2019-03-27T17:27:24.347Z,13.50
2019-03-27T17:29:53.992Z,13.50
2019-03-27T17:32:23.507Z,13.50
2019-03-27T17:34:53.155Z,13.50
2019-03-27T17:37:22.902Z,13.40
2019-03-27T17:39:52.784Z,13.50
2019-03-27T17:42:22.408Z,13.50
2019-03-27T17:44:52.260Z,13.40
2019-03-27T17:47:22.000Z,13.40
2019-03-27T17:49:51.762Z,13.30
2019-03-27T17:52:21.464Z,13.30
2019-03-27T17:54:51.352Z,13.20
2019-03-27T17:57:20.964Z,13.30
2019-03-27T17:59:50.569Z,13.30
2019-03-27T18:02:20.560Z,13.20
2019-03-27T18:04:50.032Z,13.20
